sensor_id;sensor_type;location;lat;lon;timestamp;temperature;humidity
36990;DHT22;22898;52.102;5.776;2024-01-30T00:01:15;15.70;99.90
36990;DHT22;22898;52.102;5.776;2024-01-30T00:03:41;15.80;99.90
36990;DHT22;22898;52.102;5.776;2024-01-30T00:06:11;15.80;99.90
36990;DHT22;22898;52.102;5.776;2024-01-30T00:08:36;15.90;99.90
36990;DHT22;22898;52.102;5.776;2024-01-30T00:11:02;15.80;99.90
36990;DHT22;22898;52.102;5.776;2024-01-30T00:13:27;15.80;99.90
36990;DHT22;22898;52.102;5.776;2024-01-30T00:15:53;15.60;99.90
36990;DHT22;22898;52.102;5.776;2024-01-30T00:18:19;15.70;99.90
36990;DHT22;22898;52.102;5.776;2024-01-30T00:20:45;15.70;99.90
36990;DHT22;22898;52.102;5.776;2024-01-30T00:23:11;15.60;99.90
36990;DHT22;22898;52.102;5.776;2024-01-30T00:25:36;15.60;99.90
36990;DHT22;22898;52.102;5.776;2024-01-30T00:28:02;15.60;99.90
36990;DHT22;22898;52.102;5.776;2024-01-30T00:30:28;15.60;99.90
36990;DHT22;22898;52.102;5.776;2024-01-30T00:32:54;15.60;99.90
36990;DHT22;22898;52.102;5.776;2024-01-30T00:35:19;15.60;99.90
36990;DHT22;22898;52.102;5.776;2024-01-30T00:37:47;15.60;99.90
36990;DHT22;22898;52.102;5.776;2024-01-30T00:40:13;15.60;99.90
36990;DHT22;22898;52.102;5.776;2024-01-30T00:42:42;15.50;99.90
36990;DHT22;22898;52.102;5.776;2024-01-30T00:45:15;15.40;99.90
36990;DHT22;22898;52.102;5.776;2024-01-30T00:47:41;15.30;99.90
36990;DHT22;22898;52.102;5.776;2024-01-30T00:50:07;15.30;99.90
36990;DHT22;22898;52.102;5.776;2024-01-30T00:52:33;15.30;99.90
36990;DHT22;22898;52.102;5.776;2024-01-30T00:54:59;15.30;99.90
36990;DHT22;22898;52.102;5.776;2024-01-30T00:57:25;15.30;99.90
36990;DHT22;22898;52.102;5.776;2024-01-30T00:59:50;15.20;99.90
36990;DHT22;22898;52.102;5.776;2024-01-30T01:02:16;15.10;99.90
36990;DHT22;22898;52.102;5.776;2024-01-30T01:04:43;15.00;99.90
36990;DHT22;22898;52.102;5.776;2024-01-30T01:07:10;14.90;99.90
36990;DHT22;22898;52.102;5.776;2024-01-30T01:09:35;14.90;99.90
36990;DHT22;22898;52.102;5.776;2024-01-30T01:12:02;14.70;99.90
36990;DHT22;22898;52.102;5.776;2024-01-30T01:14:27;14.60;99.90
36990;DHT22;22898;52.102;5.776;2024-01-30T01:16:53;14.50;99.90
36990;DHT22;22898;52.102;5.776;2024-01-30T01:19:19;14.50;99.90
36990;DHT22;22898;52.102;5.776;2024-01-30T01:21:44;14.50;99.90
36990;DHT22;22898;52.102;5.776;2024-01-30T01:24:11;14.50;99.90
36990;DHT22;22898;52.102;5.776;2024-01-30T01:26:36;14.50;99.90
36990;DHT22;22898;52.102;5.776;2024-01-30T01:29:02;14.50;99.90
36990;DHT22;22898;52.102;5.776;2024-01-30T01:31:37;14.40;99.90
36990;DHT22;22898;52.102;5.776;2024-01-30T01:34:12;14.50;99.90
36990;DHT22;22898;52.102;5.776;2024-01-30T01:36:38;14.40;99.90
36990;DHT22;22898;52.102;5.776;2024-01-30T01:39:04;14.40;99.90
36990;DHT22;22898;52.102;5.776;2024-01-30T01:41:31;14.40;99.90
36990;DHT22;22898;52.102;5.776;2024-01-30T01:44:00;14.40;99.90
36990;DHT22;22898;52.102;5.776;2024-01-30T01:46:32;14.00;99.90
36990;DHT22;22898;52.102;5.776;2024-01-30T01:48:58;13.80;99.90
36990;DHT22;22898;52.102;5.776;2024-01-30T01:51:27;13.60;99.90
36990;DHT22;22898;52.102;5.776;2024-01-30T01:53:57;13.70;99.90
36990;DHT22;22898;52.102;5.776;2024-01-30T01:56:24;13.60;99.90
36990;DHT22;22898;52.102;5.776;2024-01-30T01:58:51;13.60;99.90
36990;DHT22;22898;52.102;5.776;2024-01-30T02:01:20;13.70;99.90
36990;DHT22;22898;52.102;5.776;2024-01-30T02:03:46;13.70;99.90
36990;DHT22;22898;52.102;5.776;2024-01-30T02:06:15;13.80;99.90
36990;DHT22;22898;52.102;5.776;2024-01-30T02:08:42;13.90;99.90
36990;DHT22;22898;52.102;5.776;2024-01-30T02:11:08;13.80;99.90
36990;DHT22;22898;52.102;5.776;2024-01-30T02:13:35;13.90;99.90
36990;DHT22;22898;52.102;5.776;2024-01-30T02:16:01;13.80;99.90
36990;DHT22;22898;52.102;5.776;2024-01-30T02:18:27;14.00;99.90
36990;DHT22;22898;52.102;5.776;2024-01-30T02:20:54;14.00;99.90
36990;DHT22;22898;52.102;5.776;2024-01-30T02:23:24;14.00;99.90
36990;DHT22;22898;52.102;5.776;2024-01-30T02:25:53;14.20;99.90
36990;DHT22;22898;52.102;5.776;2024-01-30T02:28:19;14.20;99.90
36990;DHT22;22898;52.102;5.776;2024-01-30T02:30:48;14.20;99.90
36990;DHT22;22898;52.102;5.776;2024-01-30T02:33:14;14.40;99.90
36990;DHT22;22898;52.102;5.776;2024-01-30T02:35:39;14.40;99.90
36990;DHT22;22898;52.102;5.776;2024-01-30T02:38:05;14.50;99.90
36990;DHT22;22898;52.102;5.776;2024-01-30T02:40:31;14.40;99.90
36990;DHT22;22898;52.102;5.776;2024-01-30T02:42:59;14.50;99.90
36990;DHT22;22898;52.102;5.776;2024-01-30T02:45:25;14.50;99.90
36990;DHT22;22898;52.102;5.776;2024-01-30T02:47:51;14.50;99.90
36990;DHT22;22898;52.102;5.776;2024-01-30T02:50:16;14.60;99.90
36990;DHT22;22898;52.102;5.776;2024-01-30T02:52:42;14.80;99.90
36990;DHT22;22898;52.102;5.776;2024-01-30T02:55:11;14.70;99.90
36990;DHT22;22898;52.102;5.776;2024-01-30T02:57:37;14.60;99.90
36990;DHT22;22898;52.102;5.776;2024-01-30T03:00:03;14.50;99.90
36990;DHT22;22898;52.102;5.776;2024-01-30T03:02:32;14.40;99.90
36990;DHT22;22898;52.102;5.776;2024-01-30T03:04:57;14.60;99.90
36990;DHT22;22898;52.102;5.776;2024-01-30T03:07:23;14.60;99.90
36990;DHT22;22898;52.102;5.776;2024-01-30T03:09:49;14.30;99.90
36990;DHT22;22898;52.102;5.776;2024-01-30T03:12:14;14.50;99.90
36990;DHT22;22898;52.102;5.776;2024-01-30T03:14:40;14.70;99.90
36990;DHT22;22898;52.102;5.776;2024-01-30T03:17:06;14.80;99.90
36990;DHT22;22898;52.102;5.776;2024-01-30T03:19:31;14.90;99.90
36990;DHT22;22898;52.102;5.776;2024-01-30T03:21:57;14.90;99.90
36990;DHT22;22898;52.102;5.776;2024-01-30T03:24:23;15.00;99.90
36990;DHT22;22898;52.102;5.776;2024-01-30T03:26:48;14.90;99.90
36990;DHT22;22898;52.102;5.776;2024-01-30T03:29:14;14.90;99.90
36990;DHT22;22898;52.102;5.776;2024-01-30T03:31:39;14.90;99.90
36990;DHT22;22898;52.102;5.776;2024-01-30T03:34:05;14.80;99.90
36990;DHT22;22898;52.102;5.776;2024-01-30T03:36:31;14.90;99.90
36990;DHT22;22898;52.102;5.776;2024-01-30T03:38:59;15.10;99.90
36990;DHT22;22898;52.102;5.776;2024-01-30T03:41:24;15.20;99.90
36990;DHT22;22898;52.102;5.776;2024-01-30T03:43:50;15.30;99.90
36990;DHT22;22898;52.102;5.776;2024-01-30T03:46:16;15.30;99.90
36990;DHT22;22898;52.102;5.776;2024-01-30T03:48:42;15.20;99.90
36990;DHT22;22898;52.102;5.776;2024-01-30T03:51:07;15.20;99.90
36990;DHT22;22898;52.102;5.776;2024-01-30T03:53:33;15.10;99.90
36990;DHT22;22898;52.102;5.776;2024-01-30T03:55:59;15.20;99.90
36990;DHT22;22898;52.102;5.776;2024-01-30T03:58:25;15.40;99.90
36990;DHT22;22898;52.102;5.776;2024-01-30T04:00:50;15.50;99.90
36990;DHT22;22898;52.102;5.776;2024-01-30T04:03:16;15.40;99.90
36990;DHT22;22898;52.102;5.776;2024-01-30T04:05:42;15.40;99.90
36990;DHT22;22898;52.102;5.776;2024-01-30T04:08:08;15.40;99.90
36990;DHT22;22898;52.102;5.776;2024-01-30T04:10:34;15.30;99.90
36990;DHT22;22898;52.102;5.776;2024-01-30T04:12:59;15.50;99.90
36990;DHT22;22898;52.102;5.776;2024-01-30T04:15:25;15.40;99.90
36990;DHT22;22898;52.102;5.776;2024-01-30T04:17:51;15.40;99.90
36990;DHT22;22898;52.102;5.776;2024-01-30T04:20:17;15.30;99.90
36990;DHT22;22898;52.102;5.776;2024-01-30T04:22:44;15.20;99.90
36990;DHT22;22898;52.102;5.776;2024-01-30T04:25:10;15.10;99.90
36990;DHT22;22898;52.102;5.776;2024-01-30T04:27:35;15.00;99.90
36990;DHT22;22898;52.102;5.776;2024-01-30T04:30:01;14.90;99.90
36990;DHT22;22898;52.102;5.776;2024-01-30T04:32:27;14.90;99.90
36990;DHT22;22898;52.102;5.776;2024-01-30T04:34:52;14.90;99.90
36990;DHT22;22898;52.102;5.776;2024-01-30T04:37:18;15.10;99.90
36990;DHT22;22898;52.102;5.776;2024-01-30T04:39:43;15.20;99.90
36990;DHT22;22898;52.102;5.776;2024-01-30T04:42:09;15.00;99.90
36990;DHT22;22898;52.102;5.776;2024-01-30T04:44:35;14.90;99.90
36990;DHT22;22898;52.102;5.776;2024-01-30T04:47:00;15.00;99.90
36990;DHT22;22898;52.102;5.776;2024-01-30T04:49:27;15.10;99.90
36990;DHT22;22898;52.102;5.776;2024-01-30T04:51:53;15.10;99.90
36990;DHT22;22898;52.102;5.776;2024-01-30T04:54:18;15.00;99.90
36990;DHT22;22898;52.102;5.776;2024-01-30T04:56:44;14.80;99.90
36990;DHT22;22898;52.102;5.776;2024-01-30T04:59:09;14.90;99.90
36990;DHT22;22898;52.102;5.776;2024-01-30T05:01:35;15.00;99.90
36990;DHT22;22898;52.102;5.776;2024-01-30T05:04:01;14.80;99.90
36990;DHT22;22898;52.102;5.776;2024-01-30T05:06:27;14.80;99.90
36990;DHT22;22898;52.102;5.776;2024-01-30T05:08:53;14.80;99.90
36990;DHT22;22898;52.102;5.776;2024-01-30T05:11:19;15.00;99.90
36990;DHT22;22898;52.102;5.776;2024-01-30T05:13:47;15.00;99.90
36990;DHT22;22898;52.102;5.776;2024-01-30T05:16:13;14.90;99.90
36990;DHT22;22898;52.102;5.776;2024-01-30T05:18:39;15.10;99.90
36990;DHT22;22898;52.102;5.776;2024-01-30T05:21:05;15.20;99.90
36990;DHT22;22898;52.102;5.776;2024-01-30T05:23:31;15.30;99.90
36990;DHT22;22898;52.102;5.776;2024-01-30T05:25:57;15.40;99.90
36990;DHT22;22898;52.102;5.776;2024-01-30T05:28:22;15.30;99.90
36990;DHT22;22898;52.102;5.776;2024-01-30T05:30:48;14.90;99.90
36990;DHT22;22898;52.102;5.776;2024-01-30T05:33:13;15.00;99.90
36990;DHT22;22898;52.102;5.776;2024-01-30T05:35:39;15.20;99.90
36990;DHT22;22898;52.102;5.776;2024-01-30T05:38:05;15.40;99.90
36990;DHT22;22898;52.102;5.776;2024-01-30T05:40:30;15.50;99.90
36990;DHT22;22898;52.102;5.776;2024-01-30T05:42:56;15.70;99.90
36990;DHT22;22898;52.102;5.776;2024-01-30T05:45:26;15.80;99.90
36990;DHT22;22898;52.102;5.776;2024-01-30T05:47:52;15.90;99.90
36990;DHT22;22898;52.102;5.776;2024-01-30T05:50:18;15.90;99.90
36990;DHT22;22898;52.102;5.776;2024-01-30T05:52:44;16.00;99.90
36990;DHT22;22898;52.102;5.776;2024-01-30T05:55:10;15.90;99.90
36990;DHT22;22898;52.102;5.776;2024-01-30T05:57:37;15.80;99.90
36990;DHT22;22898;52.102;5.776;2024-01-30T06:00:04;15.90;99.90
36990;DHT22;22898;52.102;5.776;2024-01-30T06:02:30;15.80;99.90
36990;DHT22;22898;52.102;5.776;2024-01-30T06:04:55;15.70;99.90
36990;DHT22;22898;52.102;5.776;2024-01-30T06:07:21;15.60;99.90
36990;DHT22;22898;52.102;5.776;2024-01-30T06:09:47;15.80;99.90
36990;DHT22;22898;52.102;5.776;2024-01-30T06:12:13;16.00;99.90
36990;DHT22;22898;52.102;5.776;2024-01-30T06:14:39;15.70;99.90
36990;DHT22;22898;52.102;5.776;2024-01-30T06:17:05;15.60;99.90
36990;DHT22;22898;52.102;5.776;2024-01-30T06:19:30;15.60;99.90
36990;DHT22;22898;52.102;5.776;2024-01-30T06:21:56;15.70;99.90
36990;DHT22;22898;52.102;5.776;2024-01-30T06:24:22;15.50;99.90
36990;DHT22;22898;52.102;5.776;2024-01-30T06:26:47;15.60;99.90
36990;DHT22;22898;52.102;5.776;2024-01-30T06:29:13;15.70;99.90
36990;DHT22;22898;52.102;5.776;2024-01-30T06:31:43;15.80;99.90
36990;DHT22;22898;52.102;5.776;2024-01-30T06:34:11;15.90;99.90
36990;DHT22;22898;52.102;5.776;2024-01-30T06:36:37;16.00;99.90
36990;DHT22;22898;52.102;5.776;2024-01-30T06:39:03;16.20;99.90
36990;DHT22;22898;52.102;5.776;2024-01-30T06:41:29;16.30;99.90
36990;DHT22;22898;52.102;5.776;2024-01-30T06:43:56;16.10;99.90
36990;DHT22;22898;52.102;5.776;2024-01-30T06:46:21;16.00;99.90
36990;DHT22;22898;52.102;5.776;2024-01-30T06:48:47;15.90;99.90
36990;DHT22;22898;52.102;5.776;2024-01-30T06:51:13;15.80;99.90
36990;DHT22;22898;52.102;5.776;2024-01-30T06:53:38;15.80;99.90
36990;DHT22;22898;52.102;5.776;2024-01-30T06:56:04;15.30;99.90
36990;DHT22;22898;52.102;5.776;2024-01-30T06:58:30;15.20;99.90
36990;DHT22;22898;52.102;5.776;2024-01-30T07:00:56;15.40;99.90
36990;DHT22;22898;52.102;5.776;2024-01-30T07:03:22;15.50;99.90
36990;DHT22;22898;52.102;5.776;2024-01-30T07:05:48;15.80;99.90
36990;DHT22;22898;52.102;5.776;2024-01-30T07:08:15;15.80;99.90
36990;DHT22;22898;52.102;5.776;2024-01-30T07:10:43;15.70;99.90
36990;DHT22;22898;52.102;5.776;2024-01-30T07:13:09;15.40;99.90
36990;DHT22;22898;52.102;5.776;2024-01-30T07:15:35;15.70;99.90
36990;DHT22;22898;52.102;5.776;2024-01-30T07:18:02;15.60;99.90
36990;DHT22;22898;52.102;5.776;2024-01-30T07:20:28;15.60;99.90
36990;DHT22;22898;52.102;5.776;2024-01-30T07:22:55;15.50;99.90
36990;DHT22;22898;52.102;5.776;2024-01-30T07:25:21;15.30;99.90
36990;DHT22;22898;52.102;5.776;2024-01-30T07:27:47;15.00;99.90
36990;DHT22;22898;52.102;5.776;2024-01-30T07:30:12;14.90;99.90
36990;DHT22;22898;52.102;5.776;2024-01-30T07:32:38;15.10;99.90
36990;DHT22;22898;52.102;5.776;2024-01-30T07:35:04;15.00;99.90
36990;DHT22;22898;52.102;5.776;2024-01-30T07:37:30;15.00;99.90
36990;DHT22;22898;52.102;5.776;2024-01-30T07:39:55;15.10;99.90
36990;DHT22;22898;52.102;5.776;2024-01-30T07:42:21;15.30;99.90
36990;DHT22;22898;52.102;5.776;2024-01-30T07:44:46;15.70;99.90
36990;DHT22;22898;52.102;5.776;2024-01-30T07:47:12;15.90;99.90
36990;DHT22;22898;52.102;5.776;2024-01-30T07:49:41;16.20;99.90
36990;DHT22;22898;52.102;5.776;2024-01-30T07:52:06;16.30;99.90
36990;DHT22;22898;52.102;5.776;2024-01-30T07:54:32;16.40;99.90
36990;DHT22;22898;52.102;5.776;2024-01-30T07:57:13;16.50;99.90
36990;DHT22;22898;52.102;5.776;2024-01-30T07:59:39;16.30;99.90
36990;DHT22;22898;52.102;5.776;2024-01-30T08:02:04;16.30;99.90
36990;DHT22;22898;52.102;5.776;2024-01-30T08:04:30;16.50;99.90
36990;DHT22;22898;52.102;5.776;2024-01-30T08:06:55;16.20;99.90
36990;DHT22;22898;52.102;5.776;2024-01-30T08:09:21;16.20;99.90
36990;DHT22;22898;52.102;5.776;2024-01-30T08:11:47;16.20;99.90
36990;DHT22;22898;52.102;5.776;2024-01-30T08:14:12;16.10;99.90
36990;DHT22;22898;52.102;5.776;2024-01-30T08:16:39;16.00;99.90
36990;DHT22;22898;52.102;5.776;2024-01-30T08:19:04;16.20;99.90
36990;DHT22;22898;52.102;5.776;2024-01-30T08:21:30;16.50;99.90
36990;DHT22;22898;52.102;5.776;2024-01-30T08:24:04;16.50;99.90
36990;DHT22;22898;52.102;5.776;2024-01-30T08:26:31;16.60;99.90
36990;DHT22;22898;52.102;5.776;2024-01-30T08:28:56;16.30;99.90
36990;DHT22;22898;52.102;5.776;2024-01-30T08:31:22;16.00;99.90
36990;DHT22;22898;52.102;5.776;2024-01-30T08:33:47;15.90;99.90
36990;DHT22;22898;52.102;5.776;2024-01-30T08:36:13;16.20;99.90
36990;DHT22;22898;52.102;5.776;2024-01-30T08:38:38;16.40;99.90
36990;DHT22;22898;52.102;5.776;2024-01-30T08:41:04;16.40;99.90
36990;DHT22;22898;52.102;5.776;2024-01-30T08:43:30;16.30;99.90
36990;DHT22;22898;52.102;5.776;2024-01-30T08:45:59;16.50;99.90
36990;DHT22;22898;52.102;5.776;2024-01-30T08:48:25;16.60;99.90
36990;DHT22;22898;52.102;5.776;2024-01-30T08:50:51;16.70;99.90
36990;DHT22;22898;52.102;5.776;2024-01-30T08:53:16;16.50;99.90
36990;DHT22;22898;52.102;5.776;2024-01-30T08:55:42;16.50;99.90
36990;DHT22;22898;52.102;5.776;2024-01-30T08:58:08;16.70;99.90
36990;DHT22;22898;52.102;5.776;2024-01-30T09:00:33;16.70;99.90
36990;DHT22;22898;52.102;5.776;2024-01-30T09:02:59;16.60;99.90
36990;DHT22;22898;52.102;5.776;2024-01-30T09:05:24;16.70;99.90
36990;DHT22;22898;52.102;5.776;2024-01-30T09:07:50;16.90;99.90
36990;DHT22;22898;52.102;5.776;2024-01-30T09:10:16;16.90;99.90
36990;DHT22;22898;52.102;5.776;2024-01-30T09:12:41;17.00;99.90
36990;DHT22;22898;52.102;5.776;2024-01-30T09:15:07;16.90;99.90
36990;DHT22;22898;52.102;5.776;2024-01-30T09:17:33;16.80;99.90
36990;DHT22;22898;52.102;5.776;2024-01-30T09:19:59;17.00;99.90
36990;DHT22;22898;52.102;5.776;2024-01-30T09:22:25;17.30;99.90
36990;DHT22;22898;52.102;5.776;2024-01-30T09:24:51;17.10;99.90
36990;DHT22;22898;52.102;5.776;2024-01-30T09:27:16;16.90;99.90
36990;DHT22;22898;52.102;5.776;2024-01-30T09:29:42;16.80;99.90
36990;DHT22;22898;52.102;5.776;2024-01-30T09:32:08;16.70;99.90
36990;DHT22;22898;52.102;5.776;2024-01-30T09:34:34;17.00;99.90
36990;DHT22;22898;52.102;5.776;2024-01-30T09:37:00;17.30;99.90
36990;DHT22;22898;52.102;5.776;2024-01-30T09:39:26;17.40;99.90
36990;DHT22;22898;52.102;5.776;2024-01-30T09:44:41;17.50;99.90
36990;DHT22;22898;52.102;5.776;2024-01-30T09:47:08;17.40;99.90
36990;DHT22;22898;52.102;5.776;2024-01-30T09:49:34;16.80;99.90
36990;DHT22;22898;52.102;5.776;2024-01-30T09:52:03;16.50;99.90
36990;DHT22;22898;52.102;5.776;2024-01-30T09:54:30;16.50;99.90
36990;DHT22;22898;52.102;5.776;2024-01-30T09:56:57;16.50;99.90
36990;DHT22;22898;52.102;5.776;2024-01-30T09:59:23;16.50;99.90
36990;DHT22;22898;52.102;5.776;2024-01-30T10:01:50;16.50;99.90
36990;DHT22;22898;52.102;5.776;2024-01-30T10:04:16;17.00;99.90
36990;DHT22;22898;52.102;5.776;2024-01-30T10:06:42;17.00;99.90
36990;DHT22;22898;52.102;5.776;2024-01-30T10:09:07;16.90;99.90
36990;DHT22;22898;52.102;5.776;2024-01-30T10:11:35;16.80;99.90
36990;DHT22;22898;52.102;5.776;2024-01-30T10:14:01;16.90;99.90
36990;DHT22;22898;52.102;5.776;2024-01-30T10:16:27;17.20;99.90
36990;DHT22;22898;52.102;5.776;2024-01-30T10:18:52;17.20;99.90
36990;DHT22;22898;52.102;5.776;2024-01-30T10:21:18;17.00;99.90
36990;DHT22;22898;52.102;5.776;2024-01-30T10:23:44;17.20;99.90
36990;DHT22;22898;52.102;5.776;2024-01-30T10:26:10;17.40;99.90
36990;DHT22;22898;52.102;5.776;2024-01-30T10:28:36;17.30;99.90
36990;DHT22;22898;52.102;5.776;2024-01-30T10:31:02;16.50;99.90
36990;DHT22;22898;52.102;5.776;2024-01-30T10:33:31;16.00;99.90
36990;DHT22;22898;52.102;5.776;2024-01-30T10:36:04;16.00;99.90
36990;DHT22;22898;52.102;5.776;2024-01-30T10:38:31;16.30;99.90
36990;DHT22;22898;52.102;5.776;2024-01-30T10:41:00;16.70;99.90
36990;DHT22;22898;52.102;5.776;2024-01-30T10:43:36;17.10;99.90
36990;DHT22;22898;52.102;5.776;2024-01-30T10:46:19;17.00;99.90
36990;DHT22;22898;52.102;5.776;2024-01-30T10:49:06;16.30;99.90
36990;DHT22;22898;52.102;5.776;2024-01-30T10:51:32;16.20;99.90
36990;DHT22;22898;52.102;5.776;2024-01-30T10:54:00;15.80;99.90
36990;DHT22;22898;52.102;5.776;2024-01-30T10:56:28;16.30;99.90
36990;DHT22;22898;52.102;5.776;2024-01-30T10:58:54;16.70;99.90
36990;DHT22;22898;52.102;5.776;2024-01-30T11:01:22;16.70;99.90
36990;DHT22;22898;52.102;5.776;2024-01-30T11:03:55;17.10;99.90
36990;DHT22;22898;52.102;5.776;2024-01-30T11:06:25;16.70;99.90
36990;DHT22;22898;52.102;5.776;2024-01-30T11:09:05;16.20;99.90
36990;DHT22;22898;52.102;5.776;2024-01-30T11:11:57;15.80;99.90
36990;DHT22;22898;52.102;5.776;2024-01-30T11:14:27;15.50;99.90
36990;DHT22;22898;52.102;5.776;2024-01-30T11:16:57;15.20;99.90
36990;DHT22;22898;52.102;5.776;2024-01-30T11:19:27;15.20;99.90
36990;DHT22;22898;52.102;5.776;2024-01-30T11:21:53;15.70;99.90
36990;DHT22;22898;52.102;5.776;2024-01-30T11:24:20;16.10;99.90
36990;DHT22;22898;52.102;5.776;2024-01-30T11:26:58;16.50;99.90
36990;DHT22;22898;52.102;5.776;2024-01-30T11:29:28;15.90;99.90
36990;DHT22;22898;52.102;5.776;2024-01-30T11:31:58;15.60;99.90
36990;DHT22;22898;52.102;5.776;2024-01-30T11:34:24;15.10;99.90
36990;DHT22;22898;52.102;5.776;2024-01-30T11:36:56;14.50;99.90
36990;DHT22;22898;52.102;5.776;2024-01-30T11:39:29;14.00;99.90
36990;DHT22;22898;52.102;5.776;2024-01-30T11:41:55;14.20;99.90
36990;DHT22;22898;52.102;5.776;2024-01-30T11:44:21;14.30;99.90
36990;DHT22;22898;52.102;5.776;2024-01-30T11:46:48;14.60;99.90
36990;DHT22;22898;52.102;5.776;2024-01-30T11:49:14;14.40;99.90
36990;DHT22;22898;52.102;5.776;2024-01-30T11:51:40;14.50;99.90
36990;DHT22;22898;52.102;5.776;2024-01-30T11:54:07;14.20;99.90
36990;DHT22;22898;52.102;5.776;2024-01-30T11:56:33;14.30;99.90
36990;DHT22;22898;52.102;5.776;2024-01-30T11:58:58;14.00;99.90
36990;DHT22;22898;52.102;5.776;2024-01-30T12:01:26;14.20;99.90
36990;DHT22;22898;52.102;5.776;2024-01-30T12:03:52;13.90;99.90
36990;DHT22;22898;52.102;5.776;2024-01-30T12:06:18;13.80;99.90
36990;DHT22;22898;52.102;5.776;2024-01-30T12:09:02;14.10;99.90
36990;DHT22;22898;52.102;5.776;2024-01-30T12:11:48;14.50;99.90
36990;DHT22;22898;52.102;5.776;2024-01-30T12:14:14;13.90;99.90
36990;DHT22;22898;52.102;5.776;2024-01-30T12:16:40;13.90;99.90
36990;DHT22;22898;52.102;5.776;2024-01-30T12:19:09;14.00;99.90
36990;DHT22;22898;52.102;5.776;2024-01-30T12:21:34;14.00;99.90
36990;DHT22;22898;52.102;5.776;2024-01-30T12:24:01;13.80;99.90
36990;DHT22;22898;52.102;5.776;2024-01-30T12:26:28;13.90;99.90
36990;DHT22;22898;52.102;5.776;2024-01-30T12:28:57;13.70;99.90
36990;DHT22;22898;52.102;5.776;2024-01-30T12:31:32;13.50;99.90
36990;DHT22;22898;52.102;5.776;2024-01-30T12:33:59;13.40;99.90
36990;DHT22;22898;52.102;5.776;2024-01-30T12:36:25;13.60;99.90
36990;DHT22;22898;52.102;5.776;2024-01-30T12:38:51;13.20;99.90
36990;DHT22;22898;52.102;5.776;2024-01-30T12:41:17;12.40;99.90
36990;DHT22;22898;52.102;5.776;2024-01-30T12:43:43;12.10;99.90
36990;DHT22;22898;52.102;5.776;2024-01-30T12:46:09;12.10;99.90
36990;DHT22;22898;52.102;5.776;2024-01-30T12:48:35;12.60;99.90
36990;DHT22;22898;52.102;5.776;2024-01-30T12:51:01;12.80;99.90
36990;DHT22;22898;52.102;5.776;2024-01-30T12:53:27;12.40;99.90
36990;DHT22;22898;52.102;5.776;2024-01-30T12:55:52;12.80;99.90
36990;DHT22;22898;52.102;5.776;2024-01-30T12:58:19;13.20;99.90
36990;DHT22;22898;52.102;5.776;2024-01-30T13:00:46;13.30;99.90
36990;DHT22;22898;52.102;5.776;2024-01-30T13:03:12;13.70;99.90
36990;DHT22;22898;52.102;5.776;2024-01-30T13:05:38;14.30;99.90
36990;DHT22;22898;52.102;5.776;2024-01-30T13:08:04;13.30;99.90
36990;DHT22;22898;52.102;5.776;2024-01-30T13:10:30;12.70;99.90
36990;DHT22;22898;52.102;5.776;2024-01-30T13:12:55;12.80;99.90
36990;DHT22;22898;52.102;5.776;2024-01-30T13:15:21;12.70;99.90
36990;DHT22;22898;52.102;5.776;2024-01-30T13:17:48;12.70;99.90
36990;DHT22;22898;52.102;5.776;2024-01-30T13:20:15;12.40;99.90
36990;DHT22;22898;52.102;5.776;2024-01-30T13:22:44;12.30;99.90
36990;DHT22;22898;52.102;5.776;2024-01-30T13:25:10;12.40;99.90
36990;DHT22;22898;52.102;5.776;2024-01-30T13:27:37;12.60;99.90
36990;DHT22;22898;52.102;5.776;2024-01-30T13:30:03;12.50;99.90
36990;DHT22;22898;52.102;5.776;2024-01-30T13:32:29;12.30;99.90
36990;DHT22;22898;52.102;5.776;2024-01-30T13:34:54;11.90;99.90
36990;DHT22;22898;52.102;5.776;2024-01-30T13:37:21;12.20;99.90
36990;DHT22;22898;52.102;5.776;2024-01-30T13:39:47;12.50;99.90
36990;DHT22;22898;52.102;5.776;2024-01-30T13:42:13;12.50;99.90
36990;DHT22;22898;52.102;5.776;2024-01-30T13:44:38;12.50;99.90
36990;DHT22;22898;52.102;5.776;2024-01-30T13:47:04;12.20;99.90
36990;DHT22;22898;52.102;5.776;2024-01-30T13:49:30;12.30;99.90
36990;DHT22;22898;52.102;5.776;2024-01-30T13:51:55;13.10;99.90
36990;DHT22;22898;52.102;5.776;2024-01-30T13:54:21;12.80;99.90
36990;DHT22;22898;52.102;5.776;2024-01-30T13:56:47;12.60;99.90
36990;DHT22;22898;52.102;5.776;2024-01-30T13:59:12;12.60;99.90
36990;DHT22;22898;52.102;5.776;2024-01-30T14:01:38;13.10;99.90
36990;DHT22;22898;52.102;5.776;2024-01-30T14:04:03;13.20;99.90
36990;DHT22;22898;52.102;5.776;2024-01-30T14:06:29;13.40;99.90
36990;DHT22;22898;52.102;5.776;2024-01-30T14:08:55;13.50;99.90
36990;DHT22;22898;52.102;5.776;2024-01-30T14:11:20;12.90;99.90
36990;DHT22;22898;52.102;5.776;2024-01-30T14:13:46;11.80;99.90
36990;DHT22;22898;52.102;5.776;2024-01-30T14:16:12;11.80;99.90
36990;DHT22;22898;52.102;5.776;2024-01-30T14:18:37;11.70;99.90
36990;DHT22;22898;52.102;5.776;2024-01-30T14:21:03;12.00;99.90
36990;DHT22;22898;52.102;5.776;2024-01-30T14:23:28;12.20;99.90
36990;DHT22;22898;52.102;5.776;2024-01-30T14:25:54;12.00;99.90
36990;DHT22;22898;52.102;5.776;2024-01-30T14:28:20;12.20;99.90
36990;DHT22;22898;52.102;5.776;2024-01-30T14:30:45;12.90;99.90
36990;DHT22;22898;52.102;5.776;2024-01-30T14:33:11;12.70;99.90
36990;DHT22;22898;52.102;5.776;2024-01-30T14:35:37;12.70;99.90
36990;DHT22;22898;52.102;5.776;2024-01-30T14:38:03;12.90;99.90
36990;DHT22;22898;52.102;5.776;2024-01-30T14:40:30;12.80;99.90
36990;DHT22;22898;52.102;5.776;2024-01-30T14:42:56;12.40;99.90
36990;DHT22;22898;52.102;5.776;2024-01-30T14:45:21;12.30;99.90
36990;DHT22;22898;52.102;5.776;2024-01-30T14:47:47;12.30;99.90
36990;DHT22;22898;52.102;5.776;2024-01-30T14:50:13;11.60;99.90
36990;DHT22;22898;52.102;5.776;2024-01-30T14:52:41;11.90;99.90
36990;DHT22;22898;52.102;5.776;2024-01-30T14:55:06;12.10;99.90
36990;DHT22;22898;52.102;5.776;2024-01-30T14:57:32;12.40;99.90
36990;DHT22;22898;52.102;5.776;2024-01-30T15:00:00;12.60;99.90
36990;DHT22;22898;52.102;5.776;2024-01-30T15:02:25;12.30;99.90
36990;DHT22;22898;52.102;5.776;2024-01-30T15:04:51;11.90;99.90
36990;DHT22;22898;52.102;5.776;2024-01-30T15:07:17;12.20;99.90
36990;DHT22;22898;52.102;5.776;2024-01-30T15:09:43;12.20;99.90
36990;DHT22;22898;52.102;5.776;2024-01-30T15:12:08;11.90;99.90
36990;DHT22;22898;52.102;5.776;2024-01-30T15:14:34;11.90;99.90
36990;DHT22;22898;52.102;5.776;2024-01-30T15:16:59;11.30;99.90
36990;DHT22;22898;52.102;5.776;2024-01-30T15:19:25;11.40;99.90
36990;DHT22;22898;52.102;5.776;2024-01-30T15:21:50;11.60;99.90
36990;DHT22;22898;52.102;5.776;2024-01-30T15:24:16;11.60;99.90
36990;DHT22;22898;52.102;5.776;2024-01-30T15:26:43;11.90;99.90
36990;DHT22;22898;52.102;5.776;2024-01-30T15:29:09;12.30;99.90